createdAt,value
2018-12-01T00:02:57.006Z,53.90
2018-12-01T00:05:23.637Z,53.80
2018-12-01T00:12:53.850Z,54.00
2018-12-01T00:22:54.682Z,54.10
2018-12-01T00:27:53.265Z,54.10
2018-12-01T00:30:19.285Z,54.10
2018-12-01T00:32:45.124Z,54.10
2018-12-01T00:37:43.793Z,54.10
2018-12-01T00:42:41.529Z,54.00
2018-12-01T00:45:07.513Z,53.90
2018-12-01T00:47:34.080Z,53.90
2018-12-01T00:50:00.002Z,53.90
2018-12-01T00:52:25.996Z,53.80
2018-12-01T00:54:51.820Z,53.90
2018-12-01T00:59:54.118Z,53.90
2018-12-01T01:07:24.043Z,53.80
2018-12-01T01:09:50.109Z,53.80
2018-12-01T01:12:16.096Z,53.80
2018-12-01T01:14:42.129Z,53.80
2018-12-01T01:19:40.848Z,53.90
2018-12-01T01:24:38.508Z,53.80
2018-12-01T01:27:06.018Z,53.80
2018-12-01T01:29:31.988Z,53.80
2018-12-01T01:34:30.016Z,53.80
2018-12-01T01:36:55.986Z,53.60
2018-12-01T01:41:53.768Z,53.80
2018-12-01T01:44:19.800Z,53.70
2018-12-01T01:49:24.134Z,53.80
2018-12-01T01:54:24.190Z,53.80
2018-12-01T02:01:54.334Z,53.80
2018-12-01T02:04:24.379Z,53.80
2018-12-01T02:11:54.172Z,53.60
2018-12-01T02:14:20.212Z,53.60
2018-12-01T02:21:50.784Z,53.60
2018-12-01T02:26:48.580Z,53.70
2018-12-01T02:29:14.571Z,53.50
2018-12-01T02:34:13.194Z,53.60
2018-12-01T02:36:39.030Z,54.10
2018-12-01T02:39:05.045Z,53.50
2018-12-01T02:41:31.055Z,53.40
2018-12-01T02:43:57.695Z,53.50
2018-12-01T02:48:56.073Z,53.40
2018-12-01T02:56:26.197Z,53.50
2018-12-01T02:58:54.101Z,53.50
2018-12-01T03:03:53.070Z,53.40
2018-12-01T03:06:19.128Z,53.40
2018-12-01T03:11:17.513Z,53.50
2018-12-01T03:16:15.517Z,53.50
2018-12-01T03:26:18.111Z,53.40
2018-12-01T03:28:48.155Z,53.40
2018-12-01T03:33:46.772Z,53.30
2018-12-01T03:38:45.108Z,53.40
2018-12-01T03:46:14.183Z,53.40
2018-12-01T03:53:43.770Z,53.40
2018-12-01T03:56:12.115Z,53.40
2018-12-01T03:58:38.129Z,53.30
2018-12-01T04:08:41.457Z,53.40
2018-12-01T04:11:07.284Z,53.40
2018-12-01T04:16:05.471Z,53.30
2018-12-01T04:23:36.440Z,53.20
2018-12-01T04:28:35.040Z,53.20
2018-12-01T04:31:01.078Z,53.20
2018-12-01T04:33:27.710Z,53.30
2018-12-01T04:35:54.343Z,53.20
2018-12-01T04:38:20.358Z,53.10
2018-12-01T04:40:46.381Z,53.20
2018-12-01T04:43:12.421Z,53.20
2018-12-01T04:48:10.395Z,53.20
2018-12-01T04:53:09.211Z,53.10
2018-12-01T04:55:42.187Z,53.10
2018-12-01T04:58:08.202Z,53.10
2018-12-01T05:00:34.234Z,53.00
2018-12-01T05:08:03.976Z,53.00
2018-12-01T05:10:30.015Z,53.20
2018-12-01T05:13:00.332Z,53.30
2018-12-01T05:17:59.140Z,53.30
2018-12-01T05:20:25.782Z,53.40
2018-12-01T05:22:51.801Z,53.30
2018-12-01T05:32:53.311Z,53.30
2018-12-01T05:40:23.514Z,53.20
2018-12-01T05:42:49.528Z,53.10
2018-12-01T05:45:15.404Z,53.20
2018-12-01T05:52:44.853Z,53.10
2018-12-01T05:55:10.897Z,53.20
2018-12-01T05:57:36.868Z,53.20
2018-12-01T06:00:02.899Z,53.20
2018-12-01T06:07:33.308Z,53.20
2018-12-01T06:09:59.336Z,53.20
2018-12-01T06:17:28.203Z,52.90
2018-12-01T06:19:54.229Z,53.00
2018-12-01T06:27:24.183Z,53.00
2018-12-01T06:29:54.285Z,53.00
2018-12-01T06:34:52.068Z,53.10
2018-12-01T06:37:18.114Z,53.10
2018-12-01T06:39:48.480Z,53.00
2018-12-01T06:42:14.435Z,53.00
2018-12-01T06:44:40.478Z,52.90
2018-12-01T06:52:10.844Z,53.00
2018-12-01T06:54:42.211Z,53.00
2018-12-01T06:57:08.188Z,53.00
2018-12-01T06:59:34.019Z,53.00
2018-12-01T07:02:06.392Z,53.00
2018-12-01T07:04:36.241Z,52.90
2018-12-01T07:07:02.068Z,53.00
2018-12-01T07:17:04.242Z,52.80
2018-12-01T07:19:30.888Z,52.90
2018-12-01T07:22:00.248Z,52.90
2018-12-01T07:24:26.273Z,52.90
2018-12-01T07:31:55.326Z,52.80
2018-12-01T07:34:21.352Z,52.80
2018-12-01T07:36:47.934Z,52.80
2018-12-01T07:41:45.568Z,52.80
2018-12-01T07:44:12.253Z,52.80
2018-12-01T07:51:41.815Z,52.60
2018-12-01T07:54:07.756Z,52.70
2018-12-01T07:56:33.653Z,52.70
2018-12-01T08:01:30.953Z,52.70
2018-12-01T08:04:00.275Z,52.80
2018-12-01T08:06:26.139Z,52.80
2018-12-01T08:08:51.985Z,52.90
2018-12-01T08:11:18.318Z,52.90
2018-12-01T08:13:44.490Z,52.90
2018-12-01T08:18:42.343Z,52.70
2018-12-01T08:21:12.462Z,52.90
2018-12-01T08:23:39.041Z,52.70
2018-12-01T08:28:36.466Z,52.70
2018-12-01T08:33:34.861Z,52.80
2018-12-01T08:36:01.706Z,53.00
2018-12-01T08:41:00.303Z,52.90
2018-12-01T08:43:30.787Z,53.10
2018-12-01T08:45:56.844Z,52.90
2018-12-01T08:48:22.672Z,52.90
2018-12-01T08:53:21.066Z,52.80
2018-12-01T08:55:47.089Z,52.80
2018-12-01T09:00:48.772Z,52.80
2018-12-01T09:03:14.805Z,52.70
2018-12-01T09:05:42.705Z,52.70
2018-12-01T09:08:08.672Z,52.60
2018-12-01T09:10:36.343Z,53.30
2018-12-01T09:13:06.462Z,52.90
2018-12-01T09:15:36.932Z,53.40
2018-12-01T09:18:02.390Z,52.80
2018-12-01T09:20:28.441Z,52.90
2018-12-01T09:22:54.449Z,52.70
2018-12-01T09:25:24.357Z,52.90
2018-12-01T09:27:50.379Z,52.80
2018-12-01T09:30:16.393Z,52.90
2018-12-01T09:32:42.416Z,52.90
2018-12-01T09:35:08.444Z,52.80
2018-12-01T09:42:42.349Z,52.90
2018-12-01T09:45:08.328Z,52.90
2018-12-01T09:47:36.382Z,52.90
2018-12-01T10:02:41.402Z,52.80
2018-12-01T10:05:07.982Z,53.20
2018-12-01T10:07:33.808Z,52.60
2018-12-01T10:09:59.641Z,52.70
2018-12-01T10:12:30.399Z,52.80
2018-12-01T10:14:56.424Z,52.90
2018-12-01T10:17:22.449Z,52.90
2018-12-01T10:19:48.475Z,52.80
2018-12-01T10:22:14.497Z,52.80
2018-12-01T10:24:40.555Z,52.50
2018-12-01T10:27:06.549Z,53.20
2018-12-01T10:29:32.572Z,52.80
2018-12-01T10:32:00.429Z,52.80
2018-12-01T10:34:27.511Z,52.80
2018-12-01T10:36:52.478Z,52.80
2018-12-01T10:39:18.487Z,52.80
2018-12-01T10:41:44.525Z,52.70
2018-12-01T10:44:10.554Z,53.30
2018-12-01T10:46:36.567Z,52.80
2018-12-01T10:49:02.597Z,52.90
2018-12-01T10:51:28.620Z,52.90
2018-12-01T10:53:54.437Z,52.90
2018-12-01T10:56:20.464Z,53.40
2018-12-01T10:58:46.481Z,52.80
2018-12-01T11:01:12.505Z,52.80
2018-12-01T11:03:38.526Z,52.70
2018-12-01T11:06:04.556Z,52.80
2018-12-01T11:08:30.570Z,52.90
2018-12-01T11:10:56.601Z,52.90
2018-12-01T11:13:22.616Z,52.90
2018-12-01T11:15:48.645Z,52.80
2018-12-01T11:18:14.669Z,52.90
2018-12-01T11:20:40.689Z,52.90
2018-12-01T11:30:42.596Z,52.90
2018-12-01T11:33:08.628Z,53.00
2018-12-01T11:38:05.999Z,53.00
2018-12-01T11:40:32.029Z,53.00
2018-12-01T11:43:00.501Z,52.90
2018-12-01T11:45:26.525Z,52.90
2018-12-01T11:47:52.557Z,52.80
2018-12-01T11:52:51.557Z,52.90
2018-12-01T11:55:17.579Z,52.80
2018-12-01T11:57:43.612Z,52.80
2018-12-01T12:00:09.629Z,52.80
2018-12-01T12:02:35.652Z,52.80
2018-12-01T12:07:36.502Z,52.70
2018-12-01T12:10:02.536Z,52.70
2018-12-01T12:15:00.313Z,52.80
2018-12-01T12:17:26.330Z,52.60
2018-12-01T12:19:52.358Z,52.80
2018-12-01T12:22:18.414Z,52.80
2018-12-01T12:24:44.406Z,52.80
2018-12-01T12:29:41.772Z,52.40
2018-12-01T12:32:07.795Z,52.20
2018-12-01T12:44:39.830Z,50.80
2018-12-01T12:47:05.853Z,50.50
2018-12-01T12:49:31.872Z,50.30
2018-12-01T12:51:57.901Z,50.00
2018-12-01T12:54:23.934Z,49.80
2018-12-01T12:56:54.681Z,49.50
2018-12-01T13:06:56.165Z,49.10
2018-12-01T13:09:22.189Z,49.00
2018-12-01T13:11:48.825Z,49.20
2018-12-01T13:14:14.649Z,48.70
2018-12-01T13:21:44.989Z,48.50
2018-12-01T13:24:11.020Z,48.50
2018-12-01T13:26:37.051Z,48.40
2018-12-01T13:29:03.071Z,48.40
2018-12-01T13:31:30.532Z,48.20
2018-12-01T13:33:56.549Z,48.90
2018-12-01T13:36:22.573Z,48.10
2018-12-01T13:38:48.592Z,48.10
2018-12-01T13:41:18.508Z,47.90
2018-12-01T13:43:44.525Z,47.80
2018-12-01T13:46:10.560Z,47.70
2018-12-01T13:48:36.577Z,47.60
2018-12-01T13:53:33.957Z,47.70
2018-12-01T13:55:59.968Z,47.50
2018-12-01T13:58:25.788Z,47.60
2018-12-01T14:00:51.816Z,47.50
2018-12-01T14:08:24.636Z,47.40
2018-12-01T14:10:50.660Z,47.30
2018-12-01T14:13:16.692Z,47.60
2018-12-01T14:18:14.984Z,47.00
2018-12-01T14:23:12.872Z,46.90
2018-12-01T14:28:12.690Z,46.90
2018-12-01T14:30:38.525Z,46.90
2018-12-01T14:40:43.721Z,46.70
2018-12-01T14:43:12.760Z,46.60
2018-12-01T14:48:10.801Z,46.50
2018-12-01T14:55:41.381Z,46.30
2018-12-01T14:58:08.238Z,46.20
2018-12-01T15:00:34.227Z,46.20
2018-12-01T15:03:06.593Z,46.10
2018-12-01T15:05:33.826Z,46.10
2018-12-01T15:07:59.886Z,46.00
2018-12-01T15:10:25.890Z,46.30
2018-12-01T15:12:51.905Z,46.00
2018-12-01T15:15:17.910Z,45.80
2018-12-01T15:17:43.769Z,45.70
2018-12-01T15:22:42.365Z,45.60
2018-12-01T15:25:12.672Z,45.50
2018-12-01T15:27:38.707Z,45.50
2018-12-01T15:32:37.513Z,45.40
2018-12-01T15:35:06.603Z,45.40
2018-12-01T15:37:36.681Z,45.30
2018-12-01T15:45:06.678Z,45.20
2018-12-01T15:47:36.586Z,45.20
2018-12-01T15:50:02.613Z,45.20
2018-12-01T15:52:30.676Z,45.20
2018-12-01T15:54:56.712Z,45.20
2018-12-01T15:57:24.793Z,45.00
2018-12-01T15:59:55.141Z,45.00
2018-12-01T16:02:20.968Z,45.00
2018-12-01T16:04:46.939Z,45.00
2018-12-01T16:07:12.980Z,45.00
2018-12-01T16:09:39.601Z,45.10
2018-12-01T16:12:05.625Z,45.10
2018-12-01T16:14:36.797Z,45.70
2018-12-01T16:17:02.799Z,45.20
2018-12-01T16:19:30.662Z,45.10
2018-12-01T16:21:56.685Z,45.00
2018-12-01T16:24:22.758Z,45.10
2018-12-01T16:29:24.803Z,45.00
2018-12-01T16:31:51.428Z,45.10
2018-12-01T16:34:17.467Z,45.00
2018-12-01T16:39:15.652Z,45.00
2018-12-01T16:46:46.856Z,45.00
2018-12-01T16:49:12.843Z,44.90
2018-12-01T16:51:38.676Z,45.00
2018-12-01T16:56:42.833Z,44.80
2018-12-01T16:59:08.832Z,44.90
2018-12-01T17:04:06.806Z,45.00
2018-12-01T17:06:36.713Z,46.00
2018-12-01T17:11:37.563Z,45.60
2018-12-01T17:14:03.401Z,45.80
2018-12-01T17:19:01.826Z,46.20
2018-12-01T17:21:27.812Z,46.30
2018-12-01T17:29:01.178Z,47.00
2018-12-01T17:31:30.891Z,47.10
2018-12-01T17:34:00.733Z,47.40
2018-12-01T17:38:58.851Z,48.00
2018-12-01T17:41:30.655Z,47.80
2018-12-01T17:43:57.448Z,48.20
2018-12-01T17:46:23.481Z,48.10
2018-12-01T17:48:50.116Z,48.90
2018-12-01T17:51:16.136Z,48.30
2018-12-01T17:53:41.969Z,48.50
2018-12-01T17:56:12.720Z,48.50
2018-12-01T17:58:42.638Z,48.60
2018-12-01T18:01:08.631Z,48.60
2018-12-01T18:06:12.782Z,48.90
2018-12-01T18:08:38.796Z,48.80
2018-12-01T18:11:06.951Z,48.90
2018-12-01T18:13:36.768Z,48.90
2018-12-01T18:16:02.810Z,49.00
2018-12-01T18:18:30.939Z,49.10
2018-12-01T18:20:56.914Z,49.10
2018-12-01T18:23:22.918Z,49.00
2018-12-01T18:28:21.669Z,49.10
2018-12-01T18:35:54.744Z,49.20
2018-12-01T18:48:28.509Z,49.60
2018-12-01T18:50:54.833Z,49.60
2018-12-01T18:55:53.440Z,49.60
2018-12-01T18:58:19.278Z,49.70
2018-12-01T19:00:49.170Z,49.50
2018-12-01T19:03:15.056Z,49.50
2018-12-01T19:05:41.009Z,49.40
2018-12-01T19:08:06.845Z,49.50
2018-12-01T19:10:33.473Z,49.60
2018-12-01T19:15:31.099Z,49.60
2018-12-01T19:17:56.923Z,49.50
2018-12-01T19:22:54.448Z,49.70
2018-12-01T19:25:20.466Z,49.70
2018-12-01T19:27:46.297Z,49.60
2018-12-01T19:30:12.923Z,49.80
2018-12-01T19:32:38.761Z,49.60
2018-12-01T19:35:07.981Z,49.70
2018-12-01T19:40:05.849Z,49.80
2018-12-01T19:42:31.766Z,49.80
2018-12-01T19:45:01.175Z,49.90
2018-12-01T19:47:27.160Z,49.80
2018-12-01T19:49:53.207Z,49.80
2018-12-01T19:52:19.806Z,49.90
2018-12-01T19:57:18.842Z,50.00
2018-12-01T19:59:44.865Z,49.90
2018-12-01T20:02:12.766Z,50.50
2018-12-01T20:04:42.850Z,49.90
2018-12-01T20:07:08.876Z,49.90
2018-12-01T20:09:34.884Z,50.50
2018-12-01T20:12:00.918Z,50.50
2018-12-01T20:14:26.933Z,50.00
2018-12-01T20:16:52.963Z,50.00
2018-12-01T20:19:18.998Z,50.00
2018-12-01T20:21:45.624Z,50.00
2018-12-01T20:24:11.664Z,49.90
2018-12-01T20:29:10.496Z,50.00
2018-12-01T20:31:36.892Z,50.10
2018-12-01T20:36:38.194Z,50.70
2018-12-01T20:39:06.841Z,50.10
2018-12-01T20:41:32.860Z,50.10
2018-12-01T20:43:58.892Z,50.10
2018-12-01T20:46:24.906Z,50.10
2018-12-01T20:48:50.943Z,50.20
2018-12-01T20:51:18.797Z,50.20
2018-12-01T20:53:44.668Z,50.20
2018-12-01T20:56:12.792Z,50.20
2018-12-01T20:58:38.829Z,50.20
2018-12-01T21:03:37.012Z,50.20
2018-12-01T21:06:03.038Z,50.20
2018-12-01T21:13:33.195Z,50.20
2018-12-01T21:16:00.897Z,50.20
2018-12-01T21:20:58.292Z,50.30
2018-12-01T21:23:24.140Z,50.20
2018-12-01T21:25:50.889Z,50.20
2018-12-01T21:28:17.515Z,50.20
2018-12-01T21:30:43.634Z,50.20
2018-12-01T21:33:09.458Z,50.20
2018-12-01T21:35:36.817Z,50.20
2018-12-01T21:38:02.646Z,50.20
2018-12-01T21:40:29.265Z,50.30
2018-12-01T21:43:00.824Z,50.20
2018-12-01T21:45:26.879Z,50.30
2018-12-01T21:47:53.712Z,50.60
2018-12-01T21:52:53.386Z,50.40
2018-12-01T21:55:19.358Z,50.30
2018-12-01T21:57:45.387Z,50.40
2018-12-01T22:00:11.389Z,50.30
2018-12-01T22:02:37.507Z,50.40
2018-12-01T22:05:06.919Z,50.40
2018-12-01T22:10:06.950Z,50.40
2018-12-01T22:15:05.166Z,50.30
2018-12-01T22:17:31.016Z,50.40
2018-12-01T22:19:56.989Z,50.40
2018-12-01T22:22:24.860Z,50.40
2018-12-01T22:24:54.987Z,50.50
2018-12-01T22:27:24.901Z,50.50
2018-12-01T22:32:22.878Z,50.50
2018-12-01T22:34:55.037Z,50.50
2018-12-01T22:37:20.870Z,50.40
2018-12-01T22:39:48.934Z,50.50
2018-12-01T22:42:15.569Z,50.40
2018-12-01T22:44:43.024Z,50.50
2018-12-01T22:47:12.971Z,50.60
2018-12-01T22:49:38.835Z,50.50
2018-12-01T22:52:04.777Z,50.50
2018-12-01T22:54:30.633Z,50.50
2018-12-01T22:56:56.626Z,50.50
2018-12-01T23:01:54.918Z,50.60
2018-12-01T23:04:21.869Z,50.60
2018-12-01T23:09:24.969Z,50.50
2018-12-01T23:11:54.884Z,50.50
2018-12-01T23:14:21.455Z,50.40
2018-12-01T23:16:48.854Z,50.50
2018-12-01T23:19:14.796Z,50.60
2018-12-01T23:21:41.426Z,50.70
2018-12-01T23:24:07.449Z,50.70
2018-12-01T23:26:33.474Z,50.60
2018-12-01T23:28:59.293Z,50.50
2018-12-01T23:31:25.326Z,50.60
2018-12-01T23:36:24.329Z,50.60
2018-12-01T23:41:24.981Z,51.50
2018-12-01T23:43:51.017Z,50.80
2018-12-01T23:46:19.077Z,50.80
2018-12-01T23:48:44.925Z,50.70
2018-12-01T23:51:10.915Z,50.70
2018-12-01T23:53:36.934Z,50.60
2018-12-01T23:56:02.966Z,50.60
2018-12-01T23:58:30.890Z,50.60
